Time;durP1;ratioP1;P1;durP2;ratioP2;P2;SDS_P1;SDS_P2;PMS_P1;PMS_P2;Temp;Humidity;BMP_temperature;BMP_pressure;BME280_temperature;BME280_humidity;BME280_pressure;Samples;Min_cycle;Max_cycle;Signal;HPM_P1;HPM_P2
2024/01/06 00:00:09;;;;;;;46.47;19.23;;;6.20;99.90;;;;;;4961331;28;20045;-79
2024/01/06 00:02:39;;;;;;;50.60;20.75;;;6.20;99.90;;;;;;4959610;28;20038;-77
2024/01/06 00:05:06;;;;;;;48.22;20.20;;;6.20;99.90;;;;;;4975859;28;20041;-78
2024/01/06 00:07:32;;;;;;;46.50;18.77;;;6.20;99.90;;;;;;4973476;28;20031;-78
2024/01/06 00:09:58;;;;;;;52.05;21.75;;;6.20;99.90;;;;;;4956897;28;20037;-79
2024/01/06 00:12:25;;;;;;;47.83;20.92;;;6.20;99.90;;;;;;4973444;28;20750;-77
2024/01/06 00:14:51;;;;;;;48.08;19.63;;;6.10;99.90;;;;;;4957365;28;22995;-78
2024/01/06 00:17:17;;;;;;;49.45;20.08;;;6.10;99.90;;;;;;4976082;28;20038;-78
2024/01/06 00:19:44;;;;;;;41.92;19.13;;;6.10;99.90;;;;;;4973633;28;20037;-78
2024/01/06 00:22:11;;;;;;;45.00;18.90;;;6.00;99.90;;;;;;4940591;28;20065;-76
2024/01/06 00:24:37;;;;;;;42.95;18.25;;;6.00;99.90;;;;;;4975384;28;20026;-78
2024/01/06 00:27:03;;;;;;;43.42;19.02;;;6.00;99.90;;;;;;4974563;28;20681;-79
2024/01/06 00:29:30;;;;;;;42.05;18.90;;;5.90;99.90;;;;;;4958305;28;20030;-80
2024/01/06 00:31:56;;;;;;;37.08;17.00;;;5.90;99.90;;;;;;4958599;28;20033;-79
2024/01/06 00:34:22;;;;;;;42.67;17.98;;;5.90;99.90;;;;;;4975116;28;20034;-78
2024/01/06 00:36:49;;;;;;;38.80;16.60;;;5.90;99.90;;;;;;4959525;28;20046;-78
2024/01/06 00:39:15;;;;;;;37.97;16.08;;;5.90;99.90;;;;;;4941576;28;20038;-79
2024/01/06 00:41:41;;;;;;;32.53;14.35;;;5.80;99.90;;;;;;4959383;28;20042;-78
2024/01/06 00:44:08;;;;;;;43.05;18.92;;;5.70;99.90;;;;;;4975742;28;20034;-77
2024/01/06 00:46:34;;;;;;;35.53;17.30;;;5.60;99.90;;;;;;4976990;28;20045;-79
2024/01/06 00:49:01;;;;;;;31.67;14.60;;;5.50;99.90;;;;;;4975431;28;20049;-78
2024/01/06 00:51:27;;;;;;;28.30;13.52;;;5.50;99.90;;;;;;4974199;28;20034;-78
2024/01/06 00:53:54;;;;;;;31.60;14.35;;;5.50;99.90;;;;;;4944553;28;20034;-77
2024/01/06 00:56:20;;;;;;;32.92;14.23;;;5.40;99.90;;;;;;4960167;28;20034;-78
2024/01/06 00:58:46;;;;;;;32.50;14.18;;;5.40;99.90;;;;;;4958124;28;20042;-77
2024/01/06 01:01:12;;;;;;;34.08;15.02;;;5.50;99.90;;;;;;4974342;28;20035;-79
2024/01/06 01:03:39;;;;;;;41.85;18.85;;;5.40;99.90;;;;;;4959242;28;20042;-78
2024/01/06 01:06:05;;;;;;;37.15;17.52;;;5.40;99.90;;;;;;4958354;28;20042;-79
2024/01/06 01:08:31;;;;;;;36.75;16.98;;;5.50;99.90;;;;;;4976095;28;20034;-79
2024/01/06 01:10:58;;;;;;;44.63;20.13;;;5.40;99.90;;;;;;4973671;28;20042;-77
2024/01/06 01:13:24;;;;;;;35.42;16.58;;;5.50;99.90;;;;;;4975028;28;20396;-78
2024/01/06 01:15:51;;;;;;;40.30;17.73;;;5.50;99.90;;;;;;4975255;28;20030;-79
2024/01/06 01:18:18;;;;;;;40.33;18.75;;;5.50;99.90;;;;;;4958716;28;20397;-79
2024/01/06 01:20:44;;;;;;;40.90;16.73;;;5.50;99.90;;;;;;4972424;28;20034;-78
2024/01/06 01:23:10;;;;;;;34.42;15.73;;;5.60;99.90;;;;;;4956532;28;20045;-79
2024/01/06 01:25:37;;;;;;;41.92;17.83;;;5.60;99.90;;;;;;4974109;28;20038;-79
2024/01/06 01:28:03;;;;;;;38.40;16.48;;;5.60;99.90;;;;;;4972529;28;20058;-77
2024/01/06 01:30:30;;;;;;;36.88;15.68;;;5.60;99.90;;;;;;4972220;28;20045;-79
2024/01/06 01:32:56;;;;;;;35.13;15.73;;;5.60;99.90;;;;;;4972337;28;20061;-77
2024/01/06 01:35:22;;;;;;;41.92;18.95;;;5.60;99.90;;;;;;4940033;28;20444;-79
2024/01/06 01:37:49;;;;;;;43.95;18.75;;;5.60;99.90;;;;;;4976147;28;20034;-79
2024/01/06 01:40:15;;;;;;;43.78;19.67;;;5.60;99.90;;;;;;4960788;28;20473;-78
2024/01/06 01:42:45;;;;;;;42.92;18.65;;;5.60;99.90;;;;;;4979162;28;20026;-79
2024/01/06 01:45:11;;;;;;;36.63;17.13;;;5.60;99.90;;;;;;4977659;28;20102;-79
2024/01/06 01:47:39;;;;;;;44.90;20.27;;;5.50;99.90;;;;;;4976998;28;20033;-79
2024/01/06 01:50:07;;;;;;;43.88;19.73;;;5.50;99.90;;;;;;4975658;28;20034;-77
2024/01/06 01:52:35;;;;;;;41.55;18.92;;;5.50;99.90;;;;;;4958375;28;20057;-78
2024/01/06 01:55:02;;;;;;;44.97;21.23;;;5.50;99.90;;;;;;4959349;28;20038;-79
2024/01/06 01:57:28;;;;;;;46.92;19.42;;;5.50;99.90;;;;;;4975728;28;20362;-78
2024/01/06 01:59:55;;;;;;;49.88;21.65;;;5.50;99.90;;;;;;4959811;28;20042;-79
2024/01/06 02:02:22;;;;;;;50.05;20.98;;;5.50;99.90;;;;;;4969244;28;20837;-77
2024/01/06 02:04:49;;;;;;;54.70;21.95;;;5.50;99.90;;;;;;4987056;28;23226;-78
2024/01/06 02:07:15;;;;;;;47.90;22.27;;;5.50;99.90;;;;;;4973550;28;20137;-78
2024/01/06 02:09:41;;;;;;;56.15;23.55;;;5.50;99.90;;;;;;4988177;28;20371;-82
2024/01/06 02:12:08;;;;;;;54.20;22.40;;;5.50;99.90;;;;;;4971505;28;20061;-79
2024/01/06 02:14:34;;;;;;;53.35;22.98;;;5.40;99.90;;;;;;4971480;28;20039;-77
2024/01/06 02:17:00;;;;;;;48.38;22.38;;;5.40;99.90;;;;;;4958626;28;20273;-79
2024/01/06 02:19:27;;;;;;;48.60;20.80;;;5.40;99.90;;;;;;4976028;28;20057;-78
2024/01/06 02:21:53;;;;;;;64.43;23.42;;;5.40;99.90;;;;;;4957725;28;20050;-79
2024/01/06 02:24:20;;;;;;;51.35;22.48;;;5.40;99.90;;;;;;4956481;28;20045;-79
2024/01/06 02:26:47;;;;;;;54.10;20.42;;;5.40;99.90;;;;;;4940581;28;20405;-79
2024/01/06 02:29:13;;;;;;;61.85;22.40;;;5.40;99.90;;;;;;4946776;28;20034;-79
2024/01/06 02:31:39;;;;;;;57.70;22.60;;;5.40;99.90;;;;;;4957253;28;20344;-79
2024/01/06 02:34:06;;;;;;;64.30;24.48;;;5.40;99.90;;;;;;4970613;28;20034;-78
2024/01/06 02:36:32;;;;;;;61.38;23.92;;;5.30;99.90;;;;;;4970202;28;20038;-77
2024/01/06 02:38:58;;;;;;;53.30;21.58;;;5.30;99.90;;;;;;4971088;28;20594;-79
2024/01/06 02:41:25;;;;;;;53.95;21.10;;;5.30;99.90;;;;;;4952334;28;20043;-80
2024/01/06 02:43:53;;;;;;;57.63;22.80;;;5.30;99.90;;;;;;4955567;28;20613;-79
2024/01/06 02:46:20;;;;;;;63.42;24.63;;;5.30;99.90;;;;;;4970351;28;20469;-80
2024/01/06 02:48:46;;;;;;;73.05;27.90;;;5.20;99.90;;;;;;4973201;28;20038;-78
2024/01/06 02:51:12;;;;;;;62.30;27.88;;;5.30;99.90;;;;;;4957527;28;20034;-77
2024/01/06 02:53:39;;;;;;;65.15;26.48;;;5.20;99.90;;;;;;4957172;28;20470;-80
2024/01/06 02:56:12;;;;;;;60.00;24.52;;;5.20;99.90;;;;;;4957699;28;20053;-77
2024/01/06 02:58:39;;;;;;;61.88;23.73;;;5.20;99.90;;;;;;4973314;28;20053;-79
2024/01/06 03:01:05;;;;;;;65.40;26.15;;;5.20;99.90;;;;;;4956530;28;20050;-80
2024/01/06 03:03:32;;;;;;;58.42;25.25;;;5.20;99.90;;;;;;4972214;28;20045;-78
2024/01/06 03:05:58;;;;;;;53.45;23.35;;;5.10;99.90;;;;;;4960771;28;20034;-77
2024/01/06 03:08:24;;;;;;;57.78;24.60;;;5.10;99.90;;;;;;4972371;28;20038;-79
2024/01/06 03:10:51;;;;;;;56.33;24.30;;;5.10;99.90;;;;;;4972049;28;20041;-79
2024/01/06 03:13:17;;;;;;;58.75;22.98;;;5.10;99.90;;;;;;4943246;28;20026;-79
2024/01/06 03:15:43;;;;;;;59.58;26.48;;;5.10;99.90;;;;;;4971327;28;20462;-77
2024/01/06 03:18:10;;;;;;;65.65;27.55;;;5.10;99.90;;;;;;4966830;28;20152;-76
2024/01/06 03:20:36;;;;;;;57.47;26.05;;;5.10;99.90;;;;;;4984561;28;20046;-79
2024/01/06 03:23:02;;;;;;;55.13;25.00;;;5.00;99.90;;;;;;4956669;28;20058;-80
2024/01/06 03:25:29;;;;;;;62.15;24.98;;;5.10;99.90;;;;;;4971972;28;20393;-79
2024/01/06 03:27:55;;;;;;;53.08;24.40;;;5.00;99.90;;;;;;4971527;28;20379;-79
2024/01/06 03:30:22;;;;;;;53.53;21.63;;;5.10;99.90;;;;;;4955277;28;20027;-78
2024/01/06 03:32:48;;;;;;;53.63;21.85;;;5.10;99.90;;;;;;4973025;28;20034;-78
2024/01/06 03:35:15;;;;;;;53.28;22.05;;;5.10;99.90;;;;;;4947865;28;20034;-80
2024/01/06 03:37:42;;;;;;;51.53;20.23;;;5.10;99.90;;;;;;4994310;28;20034;-79
2024/01/06 03:40:08;;;;;;;48.78;19.73;;;5.10;99.90;;;;;;4961208;28;20046;-78
2024/01/06 03:42:36;;;;;;;53.80;22.05;;;5.10;99.90;;;;;;4979313;28;20046;-79
2024/01/06 03:45:03;;;;;;;49.22;19.65;;;5.10;99.90;;;;;;4959606;28;20041;-79
2024/01/06 03:47:30;;;;;;;53.90;22.40;;;5.10;99.90;;;;;;4975198;28;20401;-78
2024/01/06 03:49:56;;;;;;;49.17;21.60;;;5.10;99.90;;;;;;4977508;28;20041;-79
2024/01/06 03:52:22;;;;;;;49.88;20.67;;;5.10;99.90;;;;;;4961010;28;20044;-79
2024/01/06 03:54:49;;;;;;;49.33;20.02;;;5.10;99.90;;;;;;4977852;28;20034;-79
2024/01/06 03:57:15;;;;;;;49.35;20.65;;;5.10;99.90;;;;;;4961103;28;20062;-79
2024/01/06 03:59:42;;;;;;;54.50;22.67;;;5.10;99.90;;;;;;4975787;28;20044;-78
2024/01/06 04:02:08;;;;;;;61.55;22.58;;;5.10;99.90;;;;;;4976506;28;21210;-79
2024/01/06 04:04:34;;;;;;;54.92;23.02;;;5.00;99.90;;;;;;4962048;28;20035;-79
2024/01/06 04:07:03;;;;;;;59.70;24.88;;;5.10;99.90;;;;;;4944320;28;20038;-80
2024/01/06 04:09:30;;;;;;;54.63;23.08;;;5.00;99.90;;;;;;4960474;28;20038;-80
2024/01/06 04:11:56;;;;;;;69.20;27.30;;;5.00;99.90;;;;;;4958800;28;20030;-78
2024/01/06 04:14:22;;;;;;;64.47;26.88;;;5.00;99.90;;;;;;4976190;28;20030;-78
2024/01/06 04:16:49;;;;;;;67.50;26.65;;;5.00;99.90;;;;;;4976769;28;20045;-77
2024/01/06 04:19:15;;;;;;;62.17;24.98;;;5.00;99.90;;;;;;4975971;28;20046;-79
2024/01/06 04:21:41;;;;;;;65.30;28.48;;;4.90;99.90;;;;;;4960227;28;20641;-77
2024/01/06 04:24:08;;;;;;;65.60;27.10;;;4.90;99.90;;;;;;4960027;28;20030;-78
2024/01/06 04:26:34;;;;;;;62.65;27.52;;;4.90;99.90;;;;;;4972947;28;20038;-79
2024/01/06 04:29:01;;;;;;;65.00;27.92;;;4.90;99.90;;;;;;4988955;28;20034;-76
2024/01/06 04:31:27;;;;;;;64.95;28.08;;;4.80;99.90;;;;;;4969826;28;20045;-77
2024/01/06 04:33:54;;;;;;;72.75;28.88;;;4.80;99.90;;;;;;4968464;28;21333;-79
2024/01/06 04:36:20;;;;;;;67.50;27.60;;;4.80;99.90;;;;;;4957149;28;20041;-80
2024/01/06 04:38:46;;;;;;;72.80;30.33;;;4.70;99.90;;;;;;4958602;28;20497;-78
2024/01/06 04:41:13;;;;;;;76.97;30.88;;;4.70;99.90;;;;;;4991355;28;20030;-77
2024/01/06 04:43:39;;;;;;;68.65;28.88;;;4.70;99.90;;;;;;4963191;28;20038;-79
2024/01/06 04:46:05;;;;;;;61.55;25.98;;;4.70;99.90;;;;;;4974121;28;20038;-80
2024/01/06 04:48:34;;;;;;;77.25;31.48;;;4.70;99.90;;;;;;4960968;28;20022;-77
2024/01/06 04:51:03;;;;;;;70.30;30.48;;;4.70;99.90;;;;;;4959858;28;20041;-79
2024/01/06 04:53:29;;;;;;;60.20;26.52;;;4.60;99.90;;;;;;4958032;28;20041;-80
2024/01/06 04:55:56;;;;;;;63.13;27.30;;;4.60;99.90;;;;;;4976317;28;20034;-78
2024/01/06 04:58:22;;;;;;;61.60;26.40;;;4.60;99.90;;;;;;4976529;28;20621;-79
2024/01/06 05:00:50;;;;;;;54.63;24.17;;;4.60;99.90;;;;;;4962427;28;20045;-80
2024/01/06 05:03:17;;;;;;;61.72;26.67;;;4.60;99.90;;;;;;4974981;28;20030;-78
2024/01/06 05:05:44;;;;;;;59.47;26.17;;;4.60;99.90;;;;;;4978088;28;20034;-80
2024/01/06 05:08:10;;;;;;;51.78;23.67;;;4.60;99.90;;;;;;4960370;28;20049;-77
2024/01/06 05:10:36;;;;;;;54.50;24.25;;;4.50;99.90;;;;;;4959143;28;20057;-80
2024/01/06 05:13:03;;;;;;;58.40;26.58;;;4.60;99.90;;;;;;4987970;28;20049;-79
2024/01/06 05:15:29;;;;;;;51.13;22.75;;;4.50;99.90;;;;;;4971133;28;20046;-80
2024/01/06 05:17:55;;;;;;;60.15;24.95;;;4.50;99.90;;;;;;4960601;28;20058;-80
2024/01/06 05:20:22;;;;;;;53.97;23.63;;;4.50;99.90;;;;;;4988210;28;20037;-80
2024/01/06 05:22:49;;;;;;;50.40;20.73;;;4.50;99.90;;;;;;4976446;28;20053;-78
2024/01/06 05:25:15;;;;;;;58.50;24.67;;;4.50;99.90;;;;;;4976081;28;20046;-76
2024/01/06 05:27:41;;;;;;;55.03;23.52;;;4.50;99.90;;;;;;4974461;28;20145;-78
2024/01/06 05:30:08;;;;;;;58.47;23.02;;;4.50;99.90;;;;;;4987171;28;20042;-79
2024/01/06 05:32:34;;;;;;;49.63;25.13;;;4.50;99.90;;;;;;4970164;28;20126;-79
2024/01/06 05:35:00;;;;;;;53.67;23.52;;;4.40;99.90;;;;;;4958361;28;20026;-79
2024/01/06 05:37:27;;;;;;;52.65;22.63;;;4.40;99.90;;;;;;4957412;28;20485;-79
2024/01/06 05:39:54;;;;;;;56.28;25.10;;;4.40;99.90;;;;;;4975118;28;20045;-80
2024/01/06 05:42:21;;;;;;;56.40;25.25;;;4.30;99.90;;;;;;4977102;28;20043;-79
2024/01/06 05:44:47;;;;;;;53.70;24.92;;;4.30;99.90;;;;;;4977066;28;20041;-80
2024/01/06 05:47:13;;;;;;;48.80;22.42;;;4.30;99.90;;;;;;4972172;28;20062;-78
2024/01/06 05:49:44;;;;;;;59.10;25.25;;;4.30;99.90;;;;;;4973120;28;20039;-79
2024/01/06 05:52:10;;;;;;;52.80;24.23;;;4.30;99.90;;;;;;4973487;28;20030;-78
2024/01/06 05:54:39;;;;;;;63.47;28.45;;;4.30;99.90;;;;;;4975896;28;20042;-78
2024/01/06 05:57:06;;;;;;;54.85;22.70;;;4.30;99.90;;;;;;4974424;28;20486;-79
2024/01/06 05:59:33;;;;;;;57.72;24.70;;;4.30;99.90;;;;;;4958959;28;20038;-80
2024/01/06 06:02:00;;;;;;;54.63;24.23;;;4.30;99.90;;;;;;4974014;28;20382;-78
2024/01/06 06:04:26;;;;;;;56.33;24.77;;;4.20;99.90;;;;;;4943926;28;20046;-79
2024/01/06 06:06:53;;;;;;;58.50;26.45;;;4.20;99.90;;;;;;4959285;28;20035;-79
2024/01/06 06:09:21;;;;;;;57.00;25.88;;;4.20;99.90;;;;;;4976498;28;20525;-79
2024/01/06 06:11:48;;;;;;;47.40;22.42;;;4.10;99.90;;;;;;4959850;28;20405;-79
2024/01/06 06:14:14;;;;;;;51.13;23.70;;;4.10;99.90;;;;;;4970854;28;20046;-79
2024/01/06 06:16:40;;;;;;;51.65;23.45;;;4.10;99.90;;;;;;4972652;28;20038;-79
2024/01/06 06:19:07;;;;;;;50.55;22.98;;;4.10;99.90;;;;;;4972922;28;20049;-80
2024/01/06 06:21:34;;;;;;;50.70;24.48;;;4.10;99.90;;;;;;4958410;28;20042;-79
2024/01/06 06:24:00;;;;;;;53.63;24.50;;;4.10;99.90;;;;;;4987844;28;20263;-77
2024/01/06 06:26:28;;;;;;;46.85;22.40;;;4.10;99.90;;;;;;4957236;28;20042;-79
2024/01/06 06:28:54;;;;;;;53.55;23.35;;;4.10;99.90;;;;;;4958665;28;20045;-80
2024/01/06 06:31:21;;;;;;;56.15;25.60;;;4.10;99.90;;;;;;4989201;28;20022;-79
2024/01/06 06:33:47;;;;;;;57.08;25.27;;;4.10;99.90;;;;;;4971580;28;20049;-79
2024/01/06 06:36:13;;;;;;;44.58;22.73;;;4.10;99.90;;;;;;4974412;28;20041;-80
2024/01/06 06:38:40;;;;;;;53.08;26.00;;;4.10;99.90;;;;;;4970379;28;20080;-80
2024/01/06 06:41:06;;;;;;;44.72;22.60;;;4.00;99.90;;;;;;4973526;28;20045;-80
2024/01/06 06:43:32;;;;;;;49.03;25.98;;;4.00;99.90;;;;;;4974624;28;20023;-80
2024/01/06 06:45:59;;;;;;;40.88;22.75;;;4.00;99.90;;;;;;4957819;28;20061;-79
2024/01/06 06:48:26;;;;;;;42.83;23.60;;;4.00;99.90;;;;;;4976066;28;20430;-80
2024/01/06 06:50:52;;;;;;;42.55;22.33;;;3.90;99.90;;;;;;4957681;28;20045;-80
2024/01/06 06:53:18;;;;;;;49.33;23.88;;;3.90;99.90;;;;;;4971816;28;20053;-78
2024/01/06 06:55:45;;;;;;;47.55;24.52;;;3.90;99.90;;;;;;4958084;28;20042;-80
2024/01/06 06:58:11;;;;;;;42.90;22.13;;;3.90;99.90;;;;;;4989218;28;20031;-79
2024/01/06 07:00:38;;;;;;;39.53;20.35;;;3.90;99.90;;;;;;4971718;28;20045;-79
2024/01/06 07:03:05;;;;;;;37.95;19.45;;;3.90;99.90;;;;;;4957429;28;20405;-78
2024/01/06 07:05:31;;;;;;;38.72;19.52;;;3.90;99.90;;;;;;4959397;28;20045;-80
2024/01/06 07:08:00;;;;;;;41.25;20.17;;;3.90;99.90;;;;;;4972980;28;20034;-79
2024/01/06 07:10:26;;;;;;;43.17;21.95;;;3.90;99.90;;;;;;4972220;28;20042;-80
2024/01/06 07:12:53;;;;;;;40.70;23.17;;;4.00;99.90;;;;;;4987887;28;20473;-80
2024/01/06 07:15:19;;;;;;;41.58;23.30;;;4.00;99.90;;;;;;4970575;28;20030;-80
2024/01/06 07:17:46;;;;;;;43.63;23.48;;;3.90;99.90;;;;;;4955853;28;20048;-79
2024/01/06 07:20:12;;;;;;;41.38;22.63;;;3.90;99.90;;;;;;4972442;28;20409;-78
2024/01/06 07:22:38;;;;;;;36.83;20.02;;;3.80;99.90;;;;;;4971828;28;20045;-79
2024/01/06 07:25:06;;;;;;;36.67;22.90;;;3.80;99.90;;;;;;4972947;28;20053;-77
2024/01/06 07:27:32;;;;;;;37.28;21.90;;;3.80;99.90;;;;;;4970478;28;20046;-81
2024/01/06 07:29:58;;;;;;;37.67;22.67;;;3.80;99.90;;;;;;4969592;28;20044;-80
2024/01/06 07:32:25;;;;;;;34.03;19.30;;;3.80;99.90;;;;;;4955689;28;20041;-81
2024/01/06 07:34:51;;;;;;;35.00;20.20;;;3.80;99.90;;;;;;4971679;28;20026;-82
2024/01/06 07:37:17;;;;;;;43.33;23.55;;;3.80;99.90;;;;;;4962799;28;20037;-81
2024/01/06 07:39:44;;;;;;;38.00;21.85;;;3.80;99.90;;;;;;4965669;28;20516;-82
2024/01/06 07:42:10;;;;;;;35.88;22.48;;;3.80;99.90;;;;;;4973486;28;20034;-80
2024/01/06 07:44:36;;;;;;;37.15;22.50;;;3.80;99.90;;;;;;4972075;28;20042;-81
2024/01/06 07:47:05;;;;;;;34.92;19.77;;;3.70;99.90;;;;;;4961059;28;20033;-81
2024/01/06 07:49:31;;;;;;;44.38;22.23;;;3.70;99.90;;;;;;4972900;28;20053;-81
2024/01/06 07:51:58;;;;;;;43.65;22.75;;;3.70;99.90;;;;;;4955464;28;20035;-80
2024/01/06 07:54:24;;;;;;;39.03;23.70;;;3.70;99.90;;;;;;4972539;28;20044;-79
2024/01/06 07:56:50;;;;;;;36.67;20.48;;;3.70;99.90;;;;;;4957256;28;20039;-79
2024/01/06 07:59:17;;;;;;;34.17;19.33;;;3.70;99.90;;;;;;4955931;28;20540;-79
2024/01/06 08:01:43;;;;;;;44.03;23.05;;;3.70;99.90;;;;;;4970609;28;20046;-78
2024/01/06 08:04:09;;;;;;;42.03;24.00;;;3.70;99.90;;;;;;4954850;28;20532;-80
2024/01/06 08:06:36;;;;;;;43.50;22.90;;;3.60;99.90;;;;;;4972198;28;20038;-78
2024/01/06 08:09:03;;;;;;;41.58;21.77;;;3.60;99.90;;;;;;4985060;28;20041;-79
2024/01/06 08:11:29;;;;;;;35.08;20.63;;;3.60;99.90;;;;;;4969481;28;20041;-78
2024/01/06 08:13:56;;;;;;;43.05;22.00;;;3.60;99.90;;;;;;4970246;28;20042;-79
2024/01/06 08:16:22;;;;;;;43.15;22.83;;;3.60;99.90;;;;;;4956520;28;20507;-80
2024/01/06 08:18:48;;;;;;;43.85;24.77;;;3.60;99.90;;;;;;4970509;28;20034;-79
2024/01/06 08:21:14;;;;;;;48.25;23.95;;;3.60;99.90;;;;;;4958138;28;20065;-80
2024/01/06 08:23:41;;;;;;;42.05;22.27;;;3.60;99.90;;;;;;4959647;28;20899;-79
2024/01/06 08:26:07;;;;;;;43.63;23.08;;;3.60;99.90;;;;;;4976545;28;20034;-80
2024/01/06 08:28:33;;;;;;;40.03;21.13;;;3.60;99.90;;;;;;4973455;28;20034;-78
2024/01/06 08:31:00;;;;;;;37.42;21.35;;;3.60;99.90;;;;;;4971983;28;20039;-78
2024/01/06 08:33:26;;;;;;;38.97;21.73;;;3.60;99.90;;;;;;4973773;28;20034;-79
2024/01/06 08:35:53;;;;;;;42.60;23.70;;;3.60;99.90;;;;;;4974787;28;20037;-79
2024/01/06 08:38:22;;;;;;;45.13;23.98;;;3.60;99.90;;;;;;4957972;28;20037;-80
2024/01/06 08:40:50;;;;;;;49.20;23.67;;;3.60;99.90;;;;;;4956155;28;20046;-80
2024/01/06 08:43:17;;;;;;;52.72;26.60;;;3.60;99.90;;;;;;4957871;28;20046;-80
2024/01/06 08:45:43;;;;;;;52.92;23.92;;;3.60;99.90;;;;;;4948366;28;20065;-79
2024/01/06 08:48:11;;;;;;;56.65;26.15;;;3.60;99.90;;;;;;4958597;28;20475;-80
2024/01/06 08:50:37;;;;;;;54.53;25.00;;;3.60;99.90;;;;;;4974711;28;20042;-80
2024/01/06 08:53:04;;;;;;;51.33;25.00;;;3.50;99.90;;;;;;4973680;28;20057;-80
2024/01/06 08:55:31;;;;;;;53.50;24.17;;;3.50;99.90;;;;;;4989550;28;20034;-78
2024/01/06 08:57:57;;;;;;;45.30;22.90;;;3.50;99.90;;;;;;4973740;28;20039;-80
2024/01/06 09:00:24;;;;;;;48.55;23.83;;;3.60;99.90;;;;;;4994373;28;20393;-81
2024/01/06 09:02:50;;;;;;;38.95;20.60;;;3.60;99.90;;;;;;4971853;28;20077;-82
2024/01/06 09:05:16;;;;;;;45.50;22.73;;;3.60;99.90;;;;;;4974892;28;20608;-80
2024/01/06 09:07:43;;;;;;;47.22;22.30;;;3.60;99.90;;;;;;4975718;28;20038;-81
2024/01/06 09:10:09;;;;;;;42.92;20.88;;;3.60;99.90;;;;;;4958519;28;20035;-82
2024/01/06 09:12:35;;;;;;;44.38;22.33;;;3.60;99.90;;;;;;4974253;28;20034;-82
2024/01/06 09:15:02;;;;;;;55.85;26.63;;;3.70;99.90;;;;;;4975838;28;20536;-80
2024/01/06 09:17:30;;;;;;;51.47;25.92;;;3.70;99.90;;;;;;4990421;28;20046;-83
2024/01/06 09:19:56;;;;;;;48.17;23.77;;;3.70;99.90;;;;;;4957902;28;20049;-83
2024/01/06 09:22:23;;;;;;;54.40;24.98;;;3.70;99.90;;;;;;4974463;28;20529;-83
2024/01/06 09:24:50;;;;;;;52.60;25.33;;;3.70;99.90;;;;;;4944253;28;20069;-80
2024/01/06 09:27:16;;;;;;;52.28;25.88;;;3.70;99.90;;;;;;4946161;28;20049;-82
2024/01/06 09:29:42;;;;;;;52.47;25.83;;;3.70;99.90;;;;;;4959409;28;20363;-82
2024/01/06 09:32:09;;;;;;;53.13;25.33;;;3.70;99.90;;;;;;4974374;28;20045;-81
2024/01/06 09:34:35;;;;;;;47.25;24.98;;;3.70;99.90;;;;;;4943011;28;20409;-81
2024/01/06 09:37:01;;;;;;;55.30;28.17;;;3.70;99.90;;;;;;4978636;28;20415;-81
2024/01/06 09:39:28;;;;;;;48.63;25.33;;;3.70;99.90;;;;;;4965281;28;20073;-82
2024/01/06 09:41:54;;;;;;;50.25;25.77;;;3.70;99.90;;;;;;4990882;28;20034;-82
2024/01/06 09:44:21;;;;;;;49.28;27.25;;;3.70;99.90;;;;;;4976521;28;20041;-82
2024/01/06 09:46:48;;;;;;;48.30;26.10;;;3.70;99.90;;;;;;4976834;28;20042;-79
2024/01/06 09:49:17;;;;;;;49.22;25.00;;;3.70;99.90;;;;;;4959754;28;20042;-81
2024/01/06 09:51:51;;;;;;;47.67;26.63;;;3.70;99.90;;;;;;4988680;28;20039;-82
2024/01/06 09:54:26;;;;;;;59.95;28.75;;;3.70;99.90;;;;;;4941118;28;20030;-83
2024/01/06 09:56:52;;;;;;;60.45;30.00;;;3.70;99.90;;;;;;4968564;28;20034;-80
2024/01/06 09:59:20;;;;;;;53.33;28.65;;;3.60;99.90;;;;;;4972949;28;20045;-80
2024/01/06 10:01:46;;;;;;;52.78;28.73;;;3.60;99.90;;;;;;4941320;28;20046;-79
2024/01/06 10:04:12;;;;;;;54.40;29.08;;;3.60;99.90;;;;;;4954462;28;20023;-84
2024/01/06 10:06:39;;;;;;;48.75;27.35;;;3.60;99.90;;;;;;4971103;28;20049;-80
2024/01/06 10:09:06;;;;;;;53.35;27.77;;;3.50;99.90;;;;;;4958594;28;20524;-82
2024/01/06 10:11:35;;;;;;;45.28;26.17;;;3.50;99.90;;;;;;4975179;28;20501;-82
2024/01/06 10:14:03;;;;;;;49.72;27.15;;;3.50;99.90;;;;;;4974607;28;20130;-78
2024/01/06 10:16:29;;;;;;;51.70;28.98;;;3.50;99.90;;;;;;4958458;28;20034;-82
2024/01/06 10:18:56;;;;;;;54.45;30.20;;;3.50;99.90;;;;;;4974432;28;20026;-81
2024/01/06 10:21:22;;;;;;;58.80;31.35;;;3.50;99.90;;;;;;4970021;28;20042;-82
2024/01/06 10:23:49;;;;;;;52.92;29.15;;;3.50;99.90;;;;;;4960365;28;20049;-84
2024/01/06 10:26:15;;;;;;;53.03;29.90;;;3.50;99.90;;;;;;4975469;28;20049;-85
2024/01/06 10:28:41;;;;;;;49.35;28.00;;;3.50;99.90;;;;;;4974880;28;20034;-85
2024/01/06 10:31:08;;;;;;;49.38;26.10;;;3.50;99.90;;;;;;4974610;28;20293;-84
2024/01/06 10:33:35;;;;;;;51.47;27.38;;;3.60;99.90;;;;;;4989666;28;20026;-83
2024/01/06 10:36:04;;;;;;;49.25;27.05;;;3.60;99.90;;;;;;4971797;28;20038;-83
2024/01/06 10:38:32;;;;;;;51.17;29.20;;;3.60;99.90;;;;;;4974893;28;20038;-84
2024/01/06 10:41:00;;;;;;;54.60;31.63;;;3.50;99.90;;;;;;4972185;28;20053;-84
2024/01/06 10:43:34;;;;;;;56.17;31.42;;;3.50;99.90;;;;;;4956527;28;20459;-84
2024/01/06 10:46:04;;;;;;;55.78;31.67;;;3.50;99.90;;;;;;4959143;28;20089;-84
2024/01/06 10:48:35;;;;;;;50.38;28.52;;;3.50;99.90;;;;;;4975517;28;20053;-84
2024/01/06 10:51:07;;;;;;;46.05;25.15;;;3.60;99.90;;;;;;4958136;28;22910;-86
2024/01/06 10:53:38;;;;;;;39.35;23.70;;;3.60;99.90;;;;;;4956718;28;20053;-83
2024/01/06 10:56:07;;;;;;;38.65;22.95;;;3.60;99.90;;;;;;4960380;28;20049;-82
2024/01/06 10:58:44;;;;;;;46.10;24.65;;;3.60;99.90;;;;;;4975406;28;20034;-84
2024/01/06 11:01:12;;;;;;;40.38;23.25;;;3.60;99.90;;;;;;4974503;28;20034;-82
2024/01/06 11:03:39;;;;;;;38.97;23.63;;;3.60;99.90;;;;;;4972362;28;20046;-85
2024/01/06 11:06:10;;;;;;;39.65;23.45;;;3.50;99.90;;;;;;4959777;28;20622;-86
2024/01/06 11:08:49;;;;;;;43.45;24.77;;;3.50;99.90;;;;;;4975108;28;20038;-84
2024/01/06 11:11:19;;;;;;;41.92;24.45;;;3.50;99.90;;;;;;4973495;28;20037;-81
2024/01/06 11:13:47;;;;;;;44.20;24.23;;;3.50;99.90;;;;;;4958626;28;20026;-79
2024/01/06 11:16:33;;;;;;;46.08;24.73;;;3.50;99.90;;;;;;4976798;28;20521;-85
2024/01/06 11:19:00;;;;;;;42.53;25.08;;;3.60;99.90;;;;;;4974002;28;20037;-84
2024/01/06 11:21:27;;;;;;;44.97;26.60;;;3.60;99.90;;;;;;4972341;28;20501;-84
2024/01/06 11:24:20;;;;;;;46.20;26.75;;;3.60;99.90;;;;;;4969984;28;20462;-85
2024/01/06 11:26:51;;;;;;;44.80;27.27;;;3.50;99.90;;;;;;4971370;28;20046;-79
2024/01/06 11:29:21;;;;;;;46.63;26.88;;;3.50;99.90;;;;;;4956291;28;20069;-78
2024/01/06 11:32:16;;;;;;;47.35;28.15;;;3.50;99.90;;;;;;4970050;28;20685;-85
2024/01/06 11:34:42;;;;;;;46.72;26.27;;;3.50;99.90;;;;;;4974842;28;20062;-81
2024/01/06 11:37:09;;;;;;;43.03;25.05;;;3.50;99.90;;;;;;4961059;28;20070;-83
2024/01/06 11:39:40;;;;;;;50.25;27.77;;;3.50;99.90;;;;;;4977016;28;20670;-84
2024/01/06 11:42:10;;;;;;;47.83;27.83;;;3.50;99.90;;;;;;4975600;28;20041;-83
2024/01/06 11:44:43;;;;;;;44.95;27.10;;;3.50;99.90;;;;;;4958807;28;20053;-83
2024/01/06 11:47:13;;;;;;;51.88;31.15;;;3.50;99.90;;;;;;4987433;28;20516;-82
2024/01/06 11:49:40;;;;;;;47.13;26.27;;;3.50;99.90;;;;;;4972091;28;20477;-78
2024/01/06 11:52:06;;;;;;;43.67;26.30;;;3.50;99.90;;;;;;4971127;28;20838;-83
2024/01/06 11:54:33;;;;;;;42.17;25.38;;;3.50;99.90;;;;;;4990479;28;20049;-82
2024/01/06 11:56:59;;;;;;;45.28;28.63;;;3.40;99.90;;;;;;4976908;28;20057;-85
2024/01/06 11:59:25;;;;;;;41.05;25.27;;;3.40;99.90;;;;;;4977612;28;20049;-78
2024/01/06 12:01:52;;;;;;;39.85;25.73;;;3.50;99.90;;;;;;4977909;28;20034;-81
2024/01/06 12:04:18;;;;;;;35.63;22.60;;;3.50;99.90;;;;;;4945210;28;20054;-81
2024/01/06 12:06:45;;;;;;;31.27;21.67;;;3.50;99.90;;;;;;4960076;28;20046;-87
2024/01/06 12:09:15;;;;;;;36.15;23.98;;;3.40;99.90;;;;;;4961834;28;20050;-84
2024/01/06 12:11:44;;;;;;;38.95;24.65;;;3.40;99.90;;;;;;4994866;28;20405;-84
2024/01/06 12:14:11;;;;;;;35.78;23.90;;;3.40;99.90;;;;;;4977446;28;20041;-85
2024/01/06 12:16:38;;;;;;;35.92;23.35;;;3.40;99.90;;;;;;4961874;28;20026;-89
2024/01/06 12:19:04;;;;;;;39.92;25.55;;;3.30;99.90;;;;;;4979853;28;20030;-83
2024/01/06 12:21:33;;;;;;;38.83;24.15;;;3.30;99.90;;;;;;4978036;28;20030;-83
2024/01/06 12:24:20;;;;;;;43.05;25.52;;;3.30;99.90;;;;;;4976075;28;20054;-83
2024/01/06 12:26:47;;;;;;;45.97;28.30;;;3.30;99.90;;;;;;4960949;28;20049;-83
2024/01/06 12:29:13;;;;;;;37.72;24.70;;;3.30;99.90;;;;;;4976505;28;20026;-85
2024/01/06 12:31:41;;;;;;;37.97;23.63;;;3.40;99.90;;;;;;4977946;28;20365;-87
2024/01/06 12:34:07;;;;;;;37.60;23.73;;;3.40;99.90;;;;;;4961363;28;20512;-82